Time;durP1;ratioP1;P1;durP2;ratioP2;P2;SDS_P1;SDS_P2;PMS_P1;PMS_P2;Temp;Humidity;BMP_temperature;BMP_pressure;BME280_temperature;BME280_humidity;BME280_pressure;Samples;Min_cycle;Max_cycle;Signal;HPM_P1;HPM_P2
2022/09/19 00:01:13;;;;;;;3.87;1.40;;;;;;;;;;5034766;28;20191;-76
2022/09/19 00:03:41;;;;;;;3.37;1.40;;;;;;;;;;5039942;28;20195;-77
2022/09/19 00:06:11;;;;;;;5.53;1.30;;;;;;;;;;5054180;28;20628;-76
2022/09/19 00:08:40;;;;;;;3.40;1.10;;;;;;;;;;5053950;28;20259;-77
2022/09/19 00:11:09;;;;;;;3.67;1.07;;;;;;;;;;5053835;28;20289;-77
2022/09/19 00:13:44;;;;;;;4.27;1.10;;;;;;;;;;5054541;28;20291;-77
2022/09/19 00:16:14;;;;;;;5.03;1.50;;;;;;;;;;5053811;28;20194;-76
2022/09/19 00:18:42;;;;;;;5.73;1.60;;;;;;;;;;5053848;28;20199;-77
2022/09/19 00:21:10;;;;;;;5.27;1.20;;;;;;;;;;5053627;28;20290;-77
2022/09/19 00:26:25;;;;;;;4.10;1.23;;;;;;;;;;5055266;28;20218;-77
2022/09/19 00:28:53;;;;;;;5.50;1.40;;;;;;;;;;5057660;28;20210;-77
2022/09/19 00:31:23;;;;;;;6.20;1.50;;;;;;;;;;5057588;28;20297;-76
2022/09/19 00:33:52;;;;;;;6.63;1.37;;;;;;;;;;5057826;28;20256;-76
2022/09/19 00:36:20;;;;;;;4.43;1.33;;;;;;;;;;5057779;28;20250;-76
2022/09/19 00:38:49;;;;;;;7.07;1.40;;;;;;;;;;5057895;28;20238;-76
2022/09/19 00:41:19;;;;;;;3.73;1.30;;;;;;;;;;5057939;28;20281;-76
2022/09/19 00:43:49;;;;;;;6.13;1.50;;;;;;;;;;5057973;28;20215;-77
2022/09/19 00:46:18;;;;;;;4.40;1.40;;;;;;;;;;5057984;28;20249;-76
2022/09/19 00:48:51;;;;;;;3.80;1.20;;;;;;;;;;5057657;28;20203;-77
2022/09/19 00:51:24;;;;;;;4.03;1.70;;;;;;;;;;5057888;28;20237;-76
2022/09/19 00:53:52;;;;;;;7.37;1.83;;;;;;;;;;5057728;28;20299;-77
2022/09/19 00:56:22;;;;;;;6.20;1.40;;;;;;;;;;5057876;28;20290;-76
2022/09/19 00:58:51;;;;;;;8.83;1.80;;;;;;;;;;5058067;28;20286;-76
2022/09/19 01:01:20;;;;;;;7.10;1.80;;;;;;;;;;5057980;28;20215;-76
2022/09/19 01:03:50;;;;;;;11.37;2.13;;;;;;;;;;5037624;28;20691;-77
2022/09/19 01:06:26;;;;;;;11.03;2.20;;;;;;;;;;5036932;28;20323;-77
2022/09/19 01:09:01;;;;;;;4.57;1.80;;;;;;;;;;5048810;28;20309;-77
2022/09/19 01:11:42;;;;;;;5.90;1.90;;;;;;;;;;5056843;28;20253;-77
2022/09/19 01:14:14;;;;;;;8.73;2.10;;;;;;;;;;5057195;28;20282;-77
2022/09/19 01:16:47;;;;;;;6.30;2.07;;;;;;;;;;5057639;28;20684;-77
2022/09/19 01:19:25;;;;;;;5.40;1.90;;;;;;;;;;5057239;28;20648;-77
2022/09/19 01:21:56;;;;;;;7.00;2.37;;;;;;;;;;5056778;28;20260;-77
2022/09/19 01:24:37;;;;;;;7.60;2.17;;;;;;;;;;5057239;28;20227;-78
2022/09/19 01:27:20;;;;;;;10.00;2.10;;;;;;;;;;5057197;28;20218;-77
2022/09/19 01:29:51;;;;;;;5.47;1.90;;;;;;;;;;5057159;28;20275;-77
2022/09/19 01:32:22;;;;;;;6.17;1.97;;;;;;;;;;5056063;28;20219;-75
2022/09/19 01:34:52;;;;;;;8.53;2.10;;;;;;;;;;5056718;28;20195;-75
2022/09/19 01:37:22;;;;;;;7.60;2.37;;;;;;;;;;5056601;28;20298;-74
2022/09/19 01:39:51;;;;;;;8.03;2.47;;;;;;;;;;5053478;28;20897;-75
2022/09/19 01:42:22;;;;;;;9.87;2.43;;;;;;;;;;5048681;28;20306;-75
2022/09/19 01:44:52;;;;;;;4.97;2.20;;;;;;;;;;5050747;28;20246;-74
2022/09/19 01:47:23;;;;;;;7.70;2.20;;;;;;;;;;5045602;28;20235;-74
2022/09/19 01:49:52;;;;;;;7.73;2.40;;;;;;;;;;5054808;28;20293;-74
2022/09/19 01:52:27;;;;;;;8.63;2.60;;;;;;;;;;5055835;28;20293;-75
2022/09/19 01:54:59;;;;;;;7.17;2.40;;;;;;;;;;5055073;28;20257;-74
2022/09/19 01:57:33;;;;;;;6.97;2.00;;;;;;;;;;5054010;28;20191;-74
2022/09/19 02:00:11;;;;;;;6.13;1.90;;;;;;;;;;5055984;28;20198;-75
2022/09/19 02:02:46;;;;;;;10.50;2.33;;;;;;;;;;5055773;28;20268;-74
2022/09/19 02:05:15;;;;;;;8.57;2.23;;;;;;;;;;5055542;28;20615;-75
2022/09/19 02:07:48;;;;;;;10.37;2.47;;;;;;;;;;5053980;28;20305;-74
2022/09/19 02:10:19;;;;;;;6.20;2.30;;;;;;;;;;5055669;28;20207;-75
2022/09/19 02:12:50;;;;;;;7.67;2.40;;;;;;;;;;5051778;28;20231;-74
2022/09/19 02:15:21;;;;;;;10.13;2.50;;;;;;;;;;5043685;28;20278;-74
2022/09/19 02:17:51;;;;;;;8.23;2.40;;;;;;;;;;5048086;28;20234;-74
2022/09/19 02:20:23;;;;;;;7.83;2.47;;;;;;;;;;5052897;28;20604;-74
2022/09/19 02:22:53;;;;;;;10.00;2.80;;;;;;;;;;5053826;28;20268;-74
2022/09/19 02:25:23;;;;;;;10.60;2.60;;;;;;;;;;5055263;28;20286;-75
2022/09/19 02:27:53;;;;;;;8.30;2.53;;;;;;;;;;5045266;28;20809;-74
2022/09/19 02:30:24;;;;;;;7.50;2.50;;;;;;;;;;5055260;28;20285;-75
2022/09/19 02:32:53;;;;;;;7.03;2.40;;;;;;;;;;5054528;28;20306;-75
2022/09/19 02:35:31;;;;;;;8.83;2.43;;;;;;;;;;5045054;28;20242;-74
2022/09/19 02:38:03;;;;;;;9.97;2.43;;;;;;;;;;5035455;28;20220;-75
2022/09/19 02:40:35;;;;;;;13.67;2.60;;;;;;;;;;5048580;28;20203;-74
2022/09/19 02:43:06;;;;;;;7.63;2.47;;;;;;;;;;5053847;28;20234;-74
2022/09/19 02:45:39;;;;;;;5.87;2.10;;;;;;;;;;5054201;28;20238;-76
2022/09/19 02:48:11;;;;;;;7.20;2.30;;;;;;;;;;5052483;28;20586;-75
2022/09/19 02:50:43;;;;;;;9.77;2.30;;;;;;;;;;5053641;28;20290;-75
2022/09/19 02:53:14;;;;;;;10.60;2.57;;;;;;;;;;5053376;28;20235;-75
2022/09/19 02:55:46;;;;;;;9.30;2.27;;;;;;;;;;5053490;28;20253;-75
2022/09/19 02:58:16;;;;;;;7.60;2.57;;;;;;;;;;5043414;28;20688;-75
2022/09/19 03:00:52;;;;;;;7.63;2.07;;;;;;;;;;5044377;28;20716;-75
2022/09/19 03:06:10;;;;;;;8.20;2.33;;;;;;;;;;5050503;28;20294;-76
2022/09/19 03:08:40;;;;;;;8.03;2.50;;;;;;;;;;5054306;28;20219;-75
2022/09/19 03:11:13;;;;;;;5.83;2.17;;;;;;;;;;5054378;28;20195;-75
2022/09/19 03:13:42;;;;;;;11.07;2.13;;;;;;;;;;5048567;28;20291;-75
2022/09/19 03:16:14;;;;;;;6.73;1.83;;;;;;;;;;5034602;28;20295;-76
2022/09/19 03:18:45;;;;;;;6.43;2.10;;;;;;;;;;5041607;28;20242;-74
2022/09/19 03:21:15;;;;;;;9.40;1.90;;;;;;;;;;5051627;28;20242;-76
2022/09/19 03:23:45;;;;;;;8.63;2.00;;;;;;;;;;5053185;28;20282;-75
2022/09/19 03:26:15;;;;;;;9.57;2.20;;;;;;;;;;5054188;28;20328;-75
2022/09/19 03:28:43;;;;;;;7.63;2.13;;;;;;;;;;5054322;28;20656;-75
2022/09/19 03:31:13;;;;;;;7.63;2.17;;;;;;;;;;5052896;28;20688;-75
2022/09/19 03:33:41;;;;;;;5.80;1.80;;;;;;;;;;5053369;28;20195;-75
2022/09/19 03:36:10;;;;;;;8.17;2.17;;;;;;;;;;5053637;28;20700;-75
2022/09/19 03:38:44;;;;;;;4.27;1.93;;;;;;;;;;5054066;28;20611;-75
2022/09/19 03:41:13;;;;;;;6.27;1.93;;;;;;;;;;5052974;28;20560;-75
2022/09/19 03:43:42;;;;;;;7.60;1.70;;;;;;;;;;5053808;28;20207;-75
2022/09/19 03:46:11;;;;;;;8.43;2.17;;;;;;;;;;5053999;28;20203;-75
2022/09/19 03:48:44;;;;;;;6.27;2.20;;;;;;;;;;5051282;28;20557;-75
2022/09/19 03:51:12;;;;;;;9.60;2.10;;;;;;;;;;5049797;28;20290;-76
2022/09/19 03:53:42;;;;;;;10.07;2.30;;;;;;;;;;5044555;28;20293;-76
2022/09/19 03:56:10;;;;;;;7.60;2.27;;;;;;;;;;5053267;28;20696;-76
2022/09/19 03:58:39;;;;;;;8.07;2.33;;;;;;;;;;5048169;28;20661;-75
2022/09/19 04:01:08;;;;;;;9.47;2.93;;;;;;;;;;5053765;28;20290;-75
2022/09/19 04:03:37;;;;;;;8.40;2.40;;;;;;;;;;5054203;28;20223;-76
2022/09/19 04:06:08;;;;;;;9.97;2.53;;;;;;;;;;5052422;28;20644;-75
2022/09/19 04:08:36;;;;;;;6.20;2.60;;;;;;;;;;5053780;28;20211;-75
2022/09/19 04:11:05;;;;;;;12.03;2.80;;;;;;;;;;5053473;28;20611;-76
2022/09/19 04:13:33;;;;;;;10.30;3.50;;;;;;;;;;5053038;28;20261;-75
2022/09/19 04:16:02;;;;;;;9.90;3.50;;;;;;;;;;5052758;28;20261;-75
2022/09/19 04:18:30;;;;;;;11.73;4.33;;;;;;;;;;5052986;28;20208;-76
2022/09/19 04:20:59;;;;;;;13.87;4.60;;;;;;;;;;5047988;28;20731;-75
2022/09/19 04:23:29;;;;;;;13.23;5.17;;;;;;;;;;5053688;28;20250;-75
2022/09/19 04:25:57;;;;;;;16.90;5.03;;;;;;;;;;5058344;28;20665;-75
2022/09/19 04:28:26;;;;;;;10.47;4.80;;;;;;;;;;5053212;28;20234;-76
2022/09/19 04:30:55;;;;;;;11.83;5.53;;;;;;;;;;5053492;28;20231;-76
2022/09/19 04:33:26;;;;;;;13.63;5.33;;;;;;;;;;5046262;28;20301;-76
2022/09/19 04:35:59;;;;;;;12.90;4.97;;;;;;;;;;5053404;28;20606;-75
2022/09/19 04:38:30;;;;;;;15.03;5.40;;;;;;;;;;5051312;28;20226;-76
2022/09/19 04:40:58;;;;;;;19.63;5.87;;;;;;;;;;5053720;28;20187;-76
2022/09/19 04:43:28;;;;;;;16.00;5.80;;;;;;;;;;5047870;28;20689;-76
2022/09/19 04:45:56;;;;;;;14.83;5.77;;;;;;;;;;5049071;28;20303;-76
2022/09/19 04:48:25;;;;;;;19.23;6.10;;;;;;;;;;5048411;28;20957;-76
2022/09/19 04:50:54;;;;;;;16.07;5.50;;;;;;;;;;5063213;28;20228;-76
2022/09/19 04:53:24;;;;;;;18.27;6.27;;;;;;;;;;5064376;28;20309;-76
2022/09/19 04:55:55;;;;;;;15.63;6.00;;;;;;;;;;5057871;28;20290;-76
2022/09/19 04:58:24;;;;;;;10.53;5.27;;;;;;;;;;5048522;28;20246;-76
2022/09/19 05:00:53;;;;;;;18.77;5.97;;;;;;;;;;5046634;28;20287;-75
2022/09/19 05:03:25;;;;;;;15.10;5.80;;;;;;;;;;5047528;28;20223;-75
2022/09/19 05:05:54;;;;;;;13.63;5.73;;;;;;;;;;5052923;28;20675;-75
2022/09/19 05:08:25;;;;;;;21.17;5.73;;;;;;;;;;5055542;28;20215;-76
2022/09/19 05:10:56;;;;;;;13.57;6.00;;;;;;;;;;5052868;28;20302;-76
2022/09/19 05:13:25;;;;;;;14.03;5.33;;;;;;;;;;5053435;28;20262;-75
2022/09/19 05:15:54;;;;;;;13.77;6.00;;;;;;;;;;5056498;28;20264;-75
2022/09/19 05:18:23;;;;;;;17.37;6.07;;;;;;;;;;5046809;28;20230;-77
2022/09/19 05:20:52;;;;;;;13.83;5.83;;;;;;;;;;5056837;28;20290;-76
2022/09/19 05:23:23;;;;;;;14.13;6.03;;;;;;;;;;5056689;28;20227;-76
2022/09/19 05:25:53;;;;;;;15.67;6.17;;;;;;;;;;5055519;28;20230;-76
2022/09/19 05:28:26;;;;;;;11.40;5.80;;;;;;;;;;5055396;28;20601;-77
2022/09/19 05:30:55;;;;;;;16.37;5.80;;;;;;;;;;5055152;28;20207;-76
2022/09/19 05:33:26;;;;;;;11.77;5.83;;;;;;;;;;5053365;28;20317;-76
2022/09/19 05:35:55;;;;;;;14.47;6.00;;;;;;;;;;5056478;28;20203;-76
2022/09/19 05:38:24;;;;;;;16.27;6.17;;;;;;;;;;5055312;28;20714;-75
2022/09/19 05:40:53;;;;;;;15.40;6.17;;;;;;;;;;5041764;28;20286;-76
2022/09/19 05:43:22;;;;;;;14.77;5.97;;;;;;;;;;5055030;28;20310;-75
2022/09/19 05:45:52;;;;;;;17.40;7.07;;;;;;;;;;5055553;28;20252;-75
2022/09/19 05:48:21;;;;;;;13.80;6.80;;;;;;;;;;5054232;28;20294;-76
2022/09/19 05:50:50;;;;;;;16.10;6.40;;;;;;;;;;5056012;28;20234;-76
2022/09/19 05:56:05;;;;;;;18.73;6.70;;;;;;;;;;5035611;28;20234;-76
2022/09/19 05:58:37;;;;;;;16.80;6.03;;;;;;;;;;5035888;28;20208;-76
2022/09/19 06:01:08;;;;;;;12.53;5.53;;;;;;;;;;5051420;28;20688;-76
2022/09/19 06:03:38;;;;;;;16.70;5.97;;;;;;;;;;5055694;28;20219;-75
2022/09/19 06:06:11;;;;;;;16.67;5.93;;;;;;;;;;5061675;28;20199;-76
2022/09/19 06:08:39;;;;;;;13.63;5.87;;;;;;;;;;5076054;28;20571;-75
2022/09/19 06:11:09;;;;;;;13.27;5.63;;;;;;;;;;5058041;28;20632;-76
2022/09/19 06:16:25;;;;;;;16.67;5.50;;;;;;;;;;5055702;28;20211;-75
2022/09/19 06:18:55;;;;;;;16.23;5.37;;;;;;;;;;5056187;28;20636;-75
2022/09/19 06:21:23;;;;;;;16.90;5.33;;;;;;;;;;5055294;28;20203;-76
2022/09/19 06:23:52;;;;;;;15.17;5.80;;;;;;;;;;5055078;28;20290;-76
2022/09/19 06:26:20;;;;;;;14.37;5.73;;;;;;;;;;5055671;28;20217;-76
2022/09/19 06:28:49;;;;;;;15.80;5.80;;;;;;;;;;5055081;28;20264;-76
2022/09/19 06:31:18;;;;;;;14.00;5.27;;;;;;;;;;5049235;28;20630;-76
2022/09/19 06:33:47;;;;;;;14.40;5.27;;;;;;;;;;5055531;28;20664;-76
2022/09/19 06:36:16;;;;;;;15.77;5.30;;;;;;;;;;5055407;28;20257;-75
2022/09/19 06:38:44;;;;;;;17.57;5.63;;;;;;;;;;5054797;28;20290;-76
2022/09/19 06:41:14;;;;;;;15.67;5.50;;;;;;;;;;5053089;28;20199;-75
2022/09/19 06:43:43;;;;;;;14.60;5.33;;;;;;;;;;5055655;28;20226;-76
2022/09/19 06:46:12;;;;;;;16.70;5.47;;;;;;;;;;5054833;28;20622;-76
2022/09/19 06:48:41;;;;;;;18.47;5.27;;;;;;;;;;5040491;28;20257;-76
2022/09/19 06:51:13;;;;;;;12.83;5.23;;;;;;;;;;5045535;28;20258;-76
2022/09/19 06:53:42;;;;;;;18.27;5.30;;;;;;;;;;5054911;28;20227;-76
2022/09/19 06:56:10;;;;;;;15.80;5.40;;;;;;;;;;5053392;28;20204;-76
2022/09/19 06:58:38;;;;;;;15.10;5.80;;;;;;;;;;5053542;28;20282;-76
2022/09/19 07:01:07;;;;;;;13.13;5.30;;;;;;;;;;5055037;28;20281;-76
2022/09/19 07:03:36;;;;;;;15.43;5.37;;;;;;;;;;5054811;28;20593;-76
2022/09/19 07:06:05;;;;;;;12.53;4.93;;;;;;;;;;5054466;28;20297;-75
2022/09/19 07:08:34;;;;;;;12.87;5.00;;;;;;;;;;5054474;28;20199;-75
2022/09/19 07:11:03;;;;;;;14.83;5.53;;;;;;;;;;5036312;28;20315;-75
2022/09/19 07:13:32;;;;;;;13.63;4.63;;;;;;;;;;5035058;28;20255;-75
2022/09/19 07:16:03;;;;;;;12.40;4.70;;;;;;;;;;5034775;28;20639;-76
2022/09/19 07:18:35;;;;;;;15.17;4.97;;;;;;;;;;5051198;28;20206;-76
2022/09/19 07:21:03;;;;;;;11.93;4.73;;;;;;;;;;5054793;28;20206;-75
2022/09/19 07:23:32;;;;;;;11.10;4.87;;;;;;;;;;5051620;28;20262;-76
2022/09/19 07:26:02;;;;;;;14.80;4.53;;;;;;;;;;5074488;28;20630;-76
2022/09/19 07:28:31;;;;;;;16.27;5.30;;;;;;;;;;5058921;28;20298;-76
2022/09/19 07:31:00;;;;;;;13.80;4.70;;;;;;;;;;5034405;28;20315;-76
2022/09/19 07:33:30;;;;;;;11.73;4.57;;;;;;;;;;5034785;28;20310;-76
2022/09/19 07:35:58;;;;;;;9.47;3.80;;;;;;;;;;5033905;28;20207;-75
2022/09/19 07:38:28;;;;;;;17.87;4.60;;;;;;;;;;5035254;28;20231;-76
2022/09/19 07:40:57;;;;;;;16.13;4.43;;;;;;;;;;5052180;28;20203;-76
2022/09/19 07:43:27;;;;;;;12.13;3.60;;;;;;;;;;5053941;28;20229;-75
2022/09/19 07:45:56;;;;;;;15.00;3.80;;;;;;;;;;5034112;28;20203;-76
2022/09/19 07:48:24;;;;;;;15.80;3.90;;;;;;;;;;5048525;28;20621;-76
2022/09/19 07:50:53;;;;;;;11.93;3.43;;;;;;;;;;5052368;28;20648;-76
2022/09/19 07:53:27;;;;;;;12.20;3.60;;;;;;;;;;5053984;28;20223;-75
2022/09/19 07:55:56;;;;;;;10.13;3.47;;;;;;;;;;5053603;28;20199;-75
2022/09/19 07:58:25;;;;;;;12.03;3.30;;;;;;;;;;5048355;28;20928;-75
2022/09/19 08:00:55;;;;;;;17.07;4.50;;;;;;;;;;5056255;28;20299;-76
2022/09/19 08:03:24;;;;;;;13.83;3.90;;;;;;;;;;5049996;28;20301;-75
2022/09/19 08:05:53;;;;;;;11.80;3.57;;;;;;;;;;5053657;28;20242;-76
2022/09/19 08:08:22;;;;;;;13.93;3.40;;;;;;;;;;5053254;28;20668;-76
2022/09/19 08:10:51;;;;;;;15.03;3.70;;;;;;;;;;5050731;28;20305;-76
2022/09/19 08:13:21;;;;;;;12.30;3.00;;;;;;;;;;5037300;28;20650;-75
2022/09/19 08:15:49;;;;;;;13.83;3.30;;;;;;;;;;5033759;28;20207;-75
2022/09/19 08:18:21;;;;;;;14.10;3.40;;;;;;;;;;5049973;28;20293;-76
2022/09/19 08:20:49;;;;;;;13.13;3.70;;;;;;;;;;5043214;28;20249;-75
2022/09/19 08:23:18;;;;;;;12.87;4.60;;;;;;;;;;5053575;28;20731;-75
2022/09/19 08:25:50;;;;;;;14.50;3.90;;;;;;;;;;5048713;28;20253;-75
2022/09/19 08:28:20;;;;;;;14.73;3.33;;;;;;;;;;5033326;28;20188;-75
2022/09/19 08:30:49;;;;;;;12.87;3.00;;;;;;;;;;5048725;28;20227;-74
2022/09/19 08:33:18;;;;;;;10.80;2.67;;;;;;;;;;5052640;28;20287;-74
2022/09/19 08:35:48;;;;;;;13.00;3.83;;;;;;;;;;5053310;28;20306;-76
2022/09/19 08:38:16;;;;;;;7.97;3.33;;;;;;;;;;5033446;28;20617;-74
2022/09/19 08:40:52;;;;;;;9.53;4.63;;;;;;;;;;5053534;28;20294;-75
2022/09/19 08:43:26;;;;;;;11.97;3.90;;;;;;;;;;5052785;28;20222;-75
2022/09/19 08:46:04;;;;;;;10.13;2.73;;;;;;;;;;5053158;28;20282;-74
2022/09/19 08:48:38;;;;;;;9.13;2.50;;;;;;;;;;5057156;28;20271;-75
2022/09/19 08:51:08;;;;;;;15.27;5.77;;;;;;;;;;5054716;28;20265;-75
2022/09/19 08:53:41;;;;;;;12.50;2.80;;;;;;;;;;5052199;28;20223;-75
2022/09/19 08:56:09;;;;;;;11.40;3.07;;;;;;;;;;5056164;28;20231;-75
2022/09/19 08:58:42;;;;;;;10.77;2.73;;;;;;;;;;5057080;28;20249;-74
2022/09/19 09:01:12;;;;;;;9.73;3.50;;;;;;;;;;5055604;28;20717;-75
2022/09/19 09:03:43;;;;;;;10.47;2.83;;;;;;;;;;5050401;28;20299;-75
2022/09/19 09:06:21;;;;;;;9.30;2.70;;;;;;;;;;5056480;28;20613;-76
2022/09/19 09:08:54;;;;;;;12.60;3.10;;;;;;;;;;5055954;28;20235;-75
2022/09/19 09:11:29;;;;;;;12.97;3.73;;;;;;;;;;5055985;28;20294;-75
2022/09/19 09:13:59;;;;;;;9.50;2.57;;;;;;;;;;5036591;28;20294;-75
2022/09/19 09:16:32;;;;;;;9.87;2.90;;;;;;;;;;5038020;28;20640;-75
2022/09/19 09:19:06;;;;;;;9.83;3.37;;;;;;;;;;5056228;28;20210;-75
2022/09/19 09:21:41;;;;;;;8.60;2.57;;;;;;;;;;5056123;28;20289;-75
2022/09/19 09:24:13;;;;;;;8.70;2.73;;;;;;;;;;5036523;28;20274;-75
2022/09/19 09:27:03;;;;;;;11.30;4.27;;;;;;;;;;5054166;28;20301;-75
2022/09/19 09:29:34;;;;;;;12.13;2.63;;;;;;;;;;5073907;28;20730;-75
2022/09/19 09:32:08;;;;;;;10.93;3.13;;;;;;;;;;5063900;28;20310;-76
2022/09/19 09:34:40;;;;;;;11.87;3.70;;;;;;;;;;5055712;28;20701;-75
2022/09/19 09:37:14;;;;;;;12.20;2.47;;;;;;;;;;5055987;28;20199;-75
2022/09/19 09:39:59;;;;;;;9.90;2.92;;;;;;;;;;5056152;28;20190;-75
2022/09/19 09:42:30;;;;;;;9.50;3.73;;;;;;;;;;5054895;28;20242;-74
2022/09/19 09:45:02;;;;;;;12.77;3.05;;;;;;;;;;5055442;28;20294;-75
2022/09/19 09:47:41;;;;;;;11.07;3.70;;;;;;;;;;5055968;28;20243;-75
2022/09/19 09:50:18;;;;;;;9.47;3.77;;;;;;;;;;5051929;28;20279;-75
2022/09/19 09:52:50;;;;;;;11.00;2.97;;;;;;;;;;5054964;28;20310;-75
2022/09/19 09:58:20;;;;;;;10.90;3.57;;;;;;;;;;5054385;28;20207;-75
2022/09/19 10:03:49;;;;;;;9.90;2.37;;;;;;;;;;5054816;28;20223;-75
2022/09/19 10:06:23;;;;;;;13.37;5.33;;;;;;;;;;5054591;28;20644;-74
2022/09/19 10:08:58;;;;;;;12.57;3.20;;;;;;;;;;5055356;28;20278;-74
2022/09/19 10:11:31;;;;;;;13.18;3.85;;;;;;;;;;5055269;28;20250;-74
2022/09/19 10:14:23;;;;;;;13.10;3.50;;;;;;;;;;5054557;28;20296;-75
2022/09/19 10:16:53;;;;;;;10.57;2.67;;;;;;;;;;5055070;28;20245;-75
2022/09/19 10:19:27;;;;;;;4.23;1.57;;;;;;;;;;5055352;28;20649;-76
2022/09/19 10:21:56;;;;;;;8.37;4.60;;;;;;;;;;5055401;28;20211;-76
2022/09/19 10:24:51;;;;;;;5.73;1.83;;;;;;;;;;5040116;28;20199;-76
2022/09/19 10:27:23;;;;;;;7.77;2.97;;;;;;;;;;5054362;28;20282;-77
2022/09/19 10:29:56;;;;;;;5.83;2.87;;;;;;;;;;5054940;28;20193;-76
2022/09/19 10:32:25;;;;;;;6.10;2.73;;;;;;;;;;5050302;28;20274;-77
2022/09/19 10:34:53;;;;;;;5.00;2.00;;;;;;;;;;5053993;28;20203;-77
2022/09/19 10:37:26;;;;;;;5.57;2.40;;;;;;;;;;5054060;28;20238;-77
2022/09/19 10:40:00;;;;;;;11.07;3.83;;;;;;;;;;5054856;28;20584;-78
2022/09/19 10:42:36;;;;;;;7.67;2.90;;;;;;;;;;5035258;28;20225;-77
2022/09/19 10:45:16;;;;;;;12.23;5.70;;;;;;;;;;5035506;28;20641;-77
2022/09/19 10:47:47;;;;;;;11.50;4.23;;;;;;;;;;5047917;28;20636;-78
2022/09/19 10:50:17;;;;;;;6.50;2.47;;;;;;;;;;5055000;28;20222;-78
2022/09/19 10:52:46;;;;;;;7.00;3.07;;;;;;;;;;5054915;28;20334;-78
2022/09/19 10:55:22;;;;;;;9.33;5.70;;;;;;;;;;5035718;28;20287;-77
2022/09/19 10:57:59;;;;;;;8.70;3.10;;;;;;;;;;5035720;28;20192;-77
2022/09/19 11:00:28;;;;;;;6.50;3.17;;;;;;;;;;5036282;28;20261;-77
2022/09/19 11:02:58;;;;;;;9.98;2.95;;;;;;;;;;5050565;28;20247;-77
2022/09/19 11:05:28;;;;;;;7.13;3.70;;;;;;;;;;5034434;28;20240;-76
2022/09/19 11:07:59;;;;;;;6.90;1.83;;;;;;;;;;5034738;28;20196;-75
2022/09/19 11:10:37;;;;;;;8.50;3.57;;;;;;;;;;5073410;28;20233;-76
2022/09/19 11:13:11;;;;;;;7.45;2.47;;;;;;;;;;5058115;28;20269;-76
2022/09/19 11:15:43;;;;;;;10.13;2.20;;;;;;;;;;5053452;28;20219;-76
2022/09/19 11:18:15;;;;;;;11.35;2.33;;;;;;;;;;5053470;28;20282;-75
2022/09/19 11:20:50;;;;;;;7.80;2.30;;;;;;;;;;5053743;28;20227;-75
2022/09/19 11:23:35;;;;;;;4.15;2.20;;;;;;;;;;5040872;28;20223;-75
2022/09/19 11:26:12;;;;;;;6.70;2.67;;;;;;;;;;5039777;28;20226;-75
2022/09/19 11:28:45;;;;;;;6.70;2.40;;;;;;;;;;5052735;28;20282;-75
2022/09/19 11:31:18;;;;;;;3.35;1.30;;;;;;;;;;5040868;28;20903;-75
2022/09/19 11:34:11;;;;;;;7.03;2.85;;;;;;;;;;5054080;28;20227;-75
2022/09/19 11:37:04;;;;;;;6.63;3.85;;;;;;;;;;5053607;28;20656;-75
2022/09/19 11:39:40;;;;;;;8.37;3.27;;;;;;;;;;5044521;28;20318;-75
2022/09/19 11:42:25;;;;;;;5.13;1.45;;;;;;;;;;5053956;28;20680;-75
2022/09/19 11:45:04;;;;;;;6.68;2.60;;;;;;;;;;5051776;28;20199;-75
2022/09/19 11:47:54;;;;;;;5.10;1.60;;;;;;;;;;5046107;28;20256;-75
2022/09/19 11:50:39;;;;;;;7.43;1.80;;;;;;;;;;5050429;28;20321;-75
2022/09/19 11:53:13;;;;;;;7.53;1.90;;;;;;;;;;5053635;28;20676;-74
2022/09/19 11:55:46;;;;;;;5.82;2.45;;;;;;;;;;5053189;28;20222;-75
2022/09/19 11:58:21;;;;;;;7.40;3.25;;;;;;;;;;5051036;28;20286;-74
2022/09/19 12:01:03;;;;;;;6.53;2.20;;;;;;;;;;5053398;28;20558;-74
2022/09/19 12:03:38;;;;;;;6.05;2.40;;;;;;;;;;5052886;28;20306;-76
2022/09/19 12:06:14;;;;;;;7.45;2.65;;;;;;;;;;5052629;28;20202;-75
2022/09/19 12:08:51;;;;;;;4.22;1.77;;;;;;;;;;5050521;28;20191;-75
2022/09/19 12:11:22;;;;;;;6.22;2.17;;;;;;;;;;5051223;28;20282;-76
2022/09/19 12:13:59;;;;;;;5.00;1.67;;;;;;;;;;5053107;28;20237;-75
2022/09/19 12:16:35;;;;;;;9.73;5.60;;;;;;;;;;5052150;28;20257;-75
2022/09/19 12:19:09;;;;;;;9.50;2.10;;;;;;;;;;5052078;28;20199;-76
2022/09/19 12:21:40;;;;;;;8.90;2.20;;;;;;;;;;5047667;28;20310;-76
2022/09/19 12:27:02;;;;;;;6.20;1.95;;;;;;;;;;5051030;28;20199;-75
2022/09/19 12:29:34;;;;;;;11.98;5.03;;;;;;;;;;5054741;28;20253;-74
2022/09/19 12:32:07;;;;;;;8.45;2.47;;;;;;;;;;5056308;28;20218;-75
2022/09/19 12:34:38;;;;;;;7.07;2.10;;;;;;;;;;5056399;28;20223;-76
2022/09/19 12:37:13;;;;;;;6.25;1.92;;;;;;;;;;5056492;28;20286;-75
2022/09/19 12:39:46;;;;;;;8.57;2.22;;;;;;;;;;5057058;28;20337;-75
2022/09/19 12:42:18;;;;;;;5.13;1.83;;;;;;;;;;5056694;28;20254;-75
2022/09/19 12:44:52;;;;;;;7.93;2.17;;;;;;;;;;5055857;28;20245;-76
2022/09/19 12:47:24;;;;;;;10.27;2.53;;;;;;;;;;5054663;28;20571;-77
2022/09/19 12:49:57;;;;;;;5.80;1.63;;;;;;;;;;5052096;28;20206;-77
2022/09/19 12:52:26;;;;;;;7.47;1.80;;;;;;;;;;5054230;28;20640;-77
2022/09/19 12:58:09;;;;;;;6.27;1.70;;;;;;;;;;4770010;27;10000432;-76
2022/09/19 13:00:42;;;;;;;3.80;1.60;;;;;;;;;;5112218;27;20233;-77
2022/09/19 13:03:15;;;;;;;6.17;1.43;;;;;;;;;;5111163;28;20232;-76
2022/09/19 13:05:46;;;;;;;3.80;1.23;;;;;;;;;;5107495;28;20307;-76
2022/09/19 13:08:17;;;;;;;4.10;1.10;;;;;;;;;;5121761;27;20236;-76
2022/09/19 13:10:48;;;;;;;3.17;0.90;;;;;;;;;;5107702;28;20272;-77
2022/09/19 13:13:21;;;;;;;2.63;1.00;;;;;;;;;;5108956;28;20217;-77
2022/09/19 13:15:52;;;;;;;2.77;0.70;;;;;;;;;;5108978;28;20268;-77
2022/09/19 13:23:57;;;;;;;1.30;1.00;;;;;;;;;;5091066;28;20308;-77
2022/09/19 13:26:32;;;;;;;4.83;1.40;;;;;;;;;;5107969;28;20631;-78
2022/09/19 13:29:02;;;;;;;3.53;1.47;;;;;;;;;;5098774;28;20200;-76
2022/09/19 13:31:39;;;;;;;6.37;1.67;;;;;;;;;;5108572;28;20243;-77
2022/09/19 13:34:27;;;;;;;2.97;1.23;;;;;;;;;;5102488;28;20253;-76
2022/09/19 13:36:58;;;;;;;2.97;1.30;;;;;;;;;;5087924;28;20268;-77
2022/09/19 13:39:48;;;;;;;2.20;1.17;;;;;;;;;;5088590;28;20708;-76
2022/09/19 13:42:23;;;;;;;4.00;1.73;;;;;;;;;;5089953;28;20264;-77
2022/09/19 13:45:01;;;;;;;5.43;4.17;;;;;;;;;;5098648;28;20192;-78
2022/09/19 13:47:32;;;;;;;3.20;1.00;;;;;;;;;;5107395;28;20289;-77
2022/09/19 13:50:06;;;;;;;4.00;2.20;;;;;;;;;;5093203;28;20726;-76
2022/09/19 13:52:37;;;;;;;3.47;1.77;;;;;;;;;;5096140;28;20296;-76
2022/09/19 13:55:18;;;;;;;6.03;1.97;;;;;;;;;;5096659;28;20189;-76
2022/09/19 13:57:48;;;;;;;3.50;1.40;;;;;;;;;;5102673;28;20250;-78
2022/09/19 14:00:32;;;;;;;4.40;1.70;;;;;;;;;;5098725;28;20251;-76
2022/09/19 14:03:02;;;;;;;2.80;2.10;;;;;;;;;;5107164;28;20308;-76
2022/09/19 14:05:32;;;;;;;6.80;1.50;;;;;;;;;;5103671;28;20678;-76
2022/09/19 14:08:01;;;;;;;3.30;1.80;;;;;;;;;;5091643;28;20194;-78
2022/09/19 14:10:53;;;;;;;7.03;2.13;;;;;;;;;;5092192;28;20218;-77
2022/09/19 14:13:33;;;;;;;6.97;4.87;;;;;;;;;;5089650;28;20698;-76
2022/09/19 14:16:21;;;;;;;6.63;2.80;;;;;;;;;;5093704;28;20240;-76
2022/09/19 14:18:54;;;;;;;6.00;2.73;;;;;;;;;;5078371;28;20322;-76
2022/09/19 14:21:56;;;;;;;8.57;5.77;;;;;;;;;;5093741;28;20217;-76
2022/09/19 14:24:37;;;;;;;10.13;6.20;;;;;;;;;;5089956;28;20205;-77
2022/09/19 14:27:11;;;;;;;9.43;4.13;;;;;;;;;;5086743;28;20250;-77
2022/09/19 14:29:44;;;;;;;6.47;2.00;;;;;;;;;;5097508;28;20240;-76
2022/09/19 14:32:20;;;;;;;5.17;1.30;;;;;;;;;;5098590;28;20265;-76
2022/09/19 14:35:11;;;;;;;5.43;2.00;;;;;;;;;;5093471;28;20251;-77
2022/09/19 14:37:57;;;;;;;7.77;3.30;;;;;;;;;;5089098;28;20275;-76
2022/09/19 14:40:36;;;;;;;7.67;6.60;;;;;;;;;;5083756;28;20234;-76
2022/09/19 14:43:15;;;;;;;4.27;2.40;;;;;;;;;;5089640;28;20308;-77
2022/09/19 14:46:02;;;;;;;4.70;1.97;;;;;;;;;;5087318;28;20249;-76
2022/09/19 14:48:34;;;;;;;2.80;1.50;;;;;;;;;;5081571;28;20271;-77
2022/09/19 14:51:07;;;;;;;3.33;2.07;;;;;;;;;;5090059;28;20198;-76
2022/09/19 14:53:37;;;;;;;3.90;2.40;;;;;;;;;;5090592;28;20666;-76
2022/09/19 14:56:09;;;;;;;3.07;1.67;;;;;;;;;;5092228;28;20313;-76
2022/09/19 14:58:38;;;;;;;5.47;1.20;;;;;;;;;;5091132;28;20229;-76
2022/09/19 15:01:09;;;;;;;5.17;3.20;;;;;;;;;;5092623;28;20633;-76
2022/09/19 15:03:46;;;;;;;5.23;3.43;;;;;;;;;;5092427;28;20629;-76
2022/09/19 15:06:18;;;;;;;4.80;2.60;;;;;;;;;;5088563;28;20251;-76
2022/09/19 15:08:50;;;;;;;4.80;2.33;;;;;;;;;;5091986;28;20639;-76
2022/09/19 15:11:21;;;;;;;4.63;2.00;;;;;;;;;;5085478;28;20404;-78
2022/09/19 15:13:51;;;;;;;5.40;1.67;;;;;;;;;;5091119;28;20288;-76
2022/09/19 15:16:19;;;;;;;5.10;2.43;;;;;;;;;;5093058;28;20632;-76
2022/09/19 15:18:48;;;;;;;8.17;4.90;;;;;;;;;;5089300;28;20237;-76
2022/09/19 15:21:18;;;;;;;6.40;3.23;;;;;;;;;;5085235;28;20202;-76
2022/09/19 15:23:48;;;;;;;5.40;2.57;;;;;;;;;;5081131;28;20664;-77
2022/09/19 15:26:17;;;;;;;5.83;2.13;;;;;;;;;;5084853;28;20645;-77
2022/09/19 15:28:56;;;;;;;11.37;4.90;;;;;;;;;;5093237;28;20313;-77
2022/09/19 15:31:25;;;;;;;6.07;3.43;;;;;;;;;;5094112;28;20225;-77
2022/09/19 15:33:57;;;;;;;7.13;5.20;;;;;;;;;;5095488;28;20308;-77
2022/09/19 15:36:25;;;;;;;8.17;4.47;;;;;;;;;;5095879;28;20288;-77